createdAt,value
2018-10-07T00:00:11.106Z,11.20
2018-10-07T00:02:39.809Z,11.30
2018-10-07T00:05:08.525Z,11.20
2018-10-07T00:07:37.097Z,11.30
2018-10-07T00:10:05.790Z,11.30
2018-10-07T00:12:34.137Z,11.20
2018-10-07T00:15:04.267Z,11.20
2018-10-07T00:17:32.673Z,11.20
2018-10-07T00:20:01.511Z,11.20
2018-10-07T00:22:29.731Z,11.20
2018-10-07T00:24:58.390Z,11.30
2018-10-07T00:27:26.996Z,11.20
2018-10-07T00:29:55.661Z,11.30
2018-10-07T00:32:24.268Z,11.30
2018-10-07T00:34:53.898Z,11.30
2018-10-07T00:37:22.632Z,11.30
2018-10-07T00:39:51.249Z,11.30
2018-10-07T00:42:20.117Z,11.30
2018-10-07T00:44:48.627Z,11.20
2018-10-07T00:47:17.260Z,11.30
2018-10-07T00:49:45.792Z,11.20
2018-10-07T00:52:14.385Z,11.20
2018-10-07T00:54:43.324Z,11.20
2018-10-07T00:57:11.696Z,11.30
2018-10-07T00:59:40.432Z,11.30
2018-10-07T01:02:09.193Z,11.30
2018-10-07T01:04:37.817Z,11.20
2018-10-07T01:07:06.343Z,11.20
2018-10-07T01:09:34.952Z,11.20
2018-10-07T01:12:03.572Z,11.30
2018-10-07T01:14:32.387Z,11.30
2018-10-07T01:17:00.852Z,11.30
2018-10-07T01:19:29.399Z,11.30
2018-10-07T01:21:58.018Z,11.30
2018-10-07T01:24:26.567Z,11.20
2018-10-07T01:26:55.416Z,11.20
2018-10-07T01:29:24.057Z,11.20
2018-10-07T01:31:52.670Z,11.30
2018-10-07T01:34:21.256Z,11.30
2018-10-07T01:36:49.880Z,11.30
2018-10-07T01:39:18.456Z,11.30
2018-10-07T01:41:47.080Z,11.30
2018-10-07T01:44:15.625Z,11.30
2018-10-07T01:46:44.462Z,11.30
2018-10-07T01:49:13.232Z,11.30
2018-10-07T01:51:41.858Z,11.30
2018-10-07T01:54:10.485Z,11.30
2018-10-07T01:56:39.272Z,11.30
2018-10-07T01:59:08.138Z,11.30
2018-10-07T02:01:36.552Z,11.30
2018-10-07T02:04:05.432Z,11.20
2018-10-07T02:06:33.996Z,11.20
2018-10-07T02:09:02.661Z,11.10
2018-10-07T02:11:31.328Z,11.10
2018-10-07T02:14:00.082Z,11.10
2018-10-07T02:16:28.408Z,11.00
2018-10-07T02:18:57.057Z,10.90
2018-10-07T02:21:26.069Z,10.80
2018-10-07T02:23:54.572Z,10.80
2018-10-07T02:26:23.521Z,10.70
2018-10-07T02:28:51.780Z,10.70
2018-10-07T02:31:20.614Z,10.60
2018-10-07T02:33:49.215Z,10.60
2018-10-07T02:36:17.928Z,10.60
2018-10-07T02:38:46.601Z,10.60
2018-10-07T02:41:15.113Z,10.50
2018-10-07T02:43:43.634Z,10.50
2018-10-07T02:46:12.340Z,10.50
2018-10-07T02:48:40.893Z,10.50
2018-10-07T02:51:11.014Z,10.40
2018-10-07T02:53:39.309Z,10.30
2018-10-07T02:56:08.046Z,10.30
2018-10-07T02:58:36.821Z,10.30
2018-10-07T03:01:05.361Z,10.30
2018-10-07T03:03:34.159Z,10.30
2018-10-07T03:06:02.548Z,10.30
2018-10-07T03:08:31.345Z,10.30
2018-10-07T03:10:59.816Z,10.30
2018-10-07T03:13:28.268Z,10.30
2018-10-07T03:17:26.093Z,10.20
2018-10-07T03:19:54.632Z,10.20
2018-10-07T03:22:23.249Z,10.20
2018-10-07T03:24:51.680Z,10.20
2018-10-07T03:27:20.512Z,10.10
2018-10-07T03:29:49.197Z,10.10
2018-10-07T03:32:18.168Z,10.10
2018-10-07T03:34:46.580Z,10.10
2018-10-07T03:37:15.245Z,10.10
2018-10-07T03:39:43.781Z,10.00
2018-10-07T03:42:12.364Z,10.00
2018-10-07T03:44:40.882Z,10.00
2018-10-07T03:47:09.488Z,10.00
2018-10-07T03:49:38.577Z,10.00
2018-10-07T03:52:07.060Z,10.00
2018-10-07T03:54:35.652Z,10.00
2018-10-07T03:57:04.308Z,10.00
2018-10-07T03:59:33.102Z,10.00
2018-10-07T04:02:01.717Z,10.00
2018-10-07T04:04:30.348Z,10.00
2018-10-07T04:06:58.956Z,10.00
2018-10-07T04:09:27.473Z,10.00
2018-10-07T04:11:55.996Z,9.90
2018-10-07T04:14:24.621Z,9.90
2018-10-07T04:16:53.317Z,9.90
2018-10-07T04:19:21.953Z,9.90
2018-10-07T04:21:53.109Z,9.90
2018-10-07T04:24:21.309Z,9.90
2018-10-07T04:26:51.220Z,9.80
2018-10-07T04:29:19.608Z,9.80
2018-10-07T04:31:48.444Z,9.70
2018-10-07T04:34:17.044Z,9.70
2018-10-07T04:36:45.547Z,9.70
2018-10-07T04:39:14.395Z,9.70
2018-10-07T04:41:43.590Z,9.60
2018-10-07T04:44:12.628Z,9.50
2018-10-07T04:46:41.174Z,9.50
2018-10-07T04:49:09.705Z,9.40
2018-10-07T04:51:38.414Z,9.40
2018-10-07T04:54:07.089Z,9.30
2018-10-07T04:56:35.924Z,9.20
2018-10-07T04:59:04.626Z,9.20
2018-10-07T05:01:32.839Z,9.10
2018-10-07T05:04:01.540Z,9.10
2018-10-07T05:06:32.427Z,9.10
2018-10-07T05:09:02.789Z,9.10
2018-10-07T05:11:31.869Z,9.10
2018-10-07T05:14:00.589Z,9.10
2018-10-07T05:16:38.820Z,9.10
2018-10-07T05:19:07.616Z,9.10
2018-10-07T05:21:35.736Z,9.00
2018-10-07T05:24:04.558Z,9.00
2018-10-07T05:26:32.984Z,8.90
2018-10-07T05:29:01.741Z,8.90
2018-10-07T05:31:30.439Z,8.90
2018-10-07T05:33:58.892Z,8.90
2018-10-07T05:36:27.975Z,9.00
2018-10-07T05:38:57.090Z,8.90
2018-10-07T05:41:25.620Z,9.00
2018-10-07T05:43:54.100Z,8.90
2018-10-07T05:46:22.804Z,8.80
2018-10-07T05:48:51.236Z,8.80
2018-10-07T05:51:19.890Z,8.80
2018-10-07T05:53:48.628Z,8.70
2018-10-07T05:56:17.051Z,8.70
2018-10-07T05:58:45.752Z,8.60
2018-10-07T06:01:19.452Z,8.60
2018-10-07T06:04:00.493Z,8.60
2018-10-07T06:06:28.750Z,8.50
2018-10-07T06:08:57.737Z,8.50
2018-10-07T06:11:26.134Z,8.50
2018-10-07T06:13:54.853Z,8.50
2018-10-07T06:16:23.732Z,8.40
2018-10-07T06:18:52.027Z,8.40
2018-10-07T06:21:20.641Z,8.40
2018-10-07T06:23:49.130Z,8.30
2018-10-07T06:26:17.732Z,8.40
2018-10-07T06:28:46.703Z,8.30
2018-10-07T06:31:15.076Z,8.30
2018-10-07T06:33:43.671Z,8.30
2018-10-07T06:36:12.300Z,8.30
2018-10-07T06:38:41.035Z,8.30
2018-10-07T06:41:09.437Z,8.30
2018-10-07T06:43:38.245Z,8.40
2018-10-07T06:46:07.050Z,8.40
2018-10-07T06:48:35.579Z,8.50
2018-10-07T06:51:04.397Z,8.50
2018-10-07T06:53:32.724Z,8.60
2018-10-07T06:56:01.369Z,8.60
2018-10-07T06:58:29.989Z,8.70
2018-10-07T07:00:58.696Z,8.80
2018-10-07T07:03:27.317Z,8.90
2018-10-07T07:05:57.141Z,8.90
2018-10-07T07:08:25.394Z,9.10
2018-10-07T07:10:53.933Z,9.10
2018-10-07T07:14:47.110Z,9.20
2018-10-07T07:17:15.464Z,9.40
2018-10-07T07:19:44.365Z,9.50
2018-10-07T07:22:12.981Z,9.60
2018-10-07T07:24:41.513Z,9.70
2018-10-07T07:27:10.240Z,9.80
2018-10-07T07:29:38.673Z,9.90
2018-10-07T07:32:12.834Z,10.10
2018-10-07T07:34:41.903Z,10.30
2018-10-07T07:37:10.530Z,10.50
2018-10-07T07:39:39.246Z,10.60
2018-10-07T07:42:07.929Z,10.70
2018-10-07T07:44:36.536Z,11.00
2018-10-07T07:47:05.371Z,11.30
2018-10-07T07:49:34.076Z,11.50
2018-10-07T07:52:02.688Z,11.80
2018-10-07T07:54:31.244Z,11.90
2018-10-07T07:56:59.824Z,11.90
2018-10-07T07:59:28.345Z,12.00
2018-10-07T08:01:56.905Z,12.30
2018-10-07T08:04:25.446Z,12.50
2018-10-07T08:06:54.160Z,12.70
2018-10-07T08:09:22.782Z,12.90
2018-10-07T08:11:57.464Z,12.80
2018-10-07T08:14:26.300Z,12.70
2018-10-07T08:16:55.001Z,12.80
2018-10-07T08:19:24.040Z,12.70
2018-10-07T08:21:55.285Z,12.70
2018-10-07T08:24:25.115Z,12.60
2018-10-07T08:26:53.350Z,12.50
2018-10-07T08:29:22.090Z,12.50
2018-10-07T08:31:50.789Z,12.60
2018-10-07T08:34:19.396Z,12.60
2018-10-07T08:36:48.293Z,12.60
2018-10-07T08:39:20.728Z,12.60
2018-10-07T08:41:49.036Z,12.60
2018-10-07T08:44:17.548Z,12.40
2018-10-07T08:46:48.355Z,12.40
2018-10-07T08:49:16.973Z,12.40
2018-10-07T08:54:37.009Z,12.60
2018-10-07T08:57:05.285Z,13.20
2018-10-07T08:59:34.065Z,13.40
2018-10-07T09:02:02.647Z,13.60
2018-10-07T09:04:31.309Z,13.80
2018-10-07T09:07:00.186Z,13.80
2018-10-07T09:09:28.741Z,13.90
2018-10-07T09:11:57.405Z,13.80
2018-10-07T09:14:26.226Z,13.80
2018-10-07T09:16:55.120Z,13.90
2018-10-07T09:19:23.603Z,14.00
2018-10-07T09:21:52.228Z,14.10
2018-10-07T09:24:21.004Z,14.20
2018-10-07T09:26:49.703Z,14.10
2018-10-07T09:29:18.238Z,14.20
2018-10-07T09:31:46.869Z,14.20
2018-10-07T09:34:15.592Z,14.30
2018-10-07T09:36:44.258Z,14.40
2018-10-07T09:39:13.999Z,14.40
2018-10-07T09:41:42.456Z,14.50
2018-10-07T09:44:11.009Z,14.60
2018-10-07T09:46:42.761Z,14.70
2018-10-07T09:49:11.221Z,14.70
2018-10-07T09:51:39.893Z,14.70
2018-10-07T09:54:08.369Z,14.80
2018-10-07T09:56:37.004Z,14.70
2018-10-07T10:00:35.936Z,14.90
2018-10-07T10:03:04.284Z,15.00
2018-10-07T10:05:33.309Z,15.00
2018-10-07T10:08:08.127Z,15.00
2018-10-07T10:10:36.472Z,15.10
2018-10-07T10:13:06.258Z,15.40
2018-10-07T10:15:34.555Z,15.60
2018-10-07T10:18:06.284Z,15.80
2018-10-07T10:21:43.768Z,15.80
2018-10-07T10:26:34.740Z,15.90
2018-10-07T10:29:17.242Z,16.00
2018-10-07T10:31:58.429Z,16.30
2018-10-07T10:35:42.342Z,16.30
2018-10-07T10:38:25.008Z,16.10
2018-10-07T10:41:00.529Z,16.20
2018-10-07T10:43:42.665Z,16.30
2018-10-07T10:46:13.992Z,16.50
2018-10-07T10:48:55.837Z,16.60
2018-10-07T10:51:36.469Z,16.70
2018-10-07T10:55:24.817Z,17.00
2018-10-07T10:57:57.041Z,16.80
2018-10-07T11:00:59.306Z,16.50
2018-10-07T11:03:46.380Z,16.40
2018-10-07T11:06:22.177Z,16.20
2018-10-07T11:09:18.313Z,16.00
2018-10-07T11:11:55.457Z,16.10
2018-10-07T11:14:36.621Z,16.40
2018-10-07T11:20:07.182Z,16.20
2018-10-07T11:22:48.481Z,16.10
2018-10-07T11:33:51.087Z,16.80
2018-10-07T11:36:31.954Z,16.80
2018-10-07T11:39:15.053Z,16.90
2018-10-07T11:42:21.300Z,16.90
2018-10-07T11:44:58.041Z,17.10
2018-10-07T11:47:37.310Z,16.90
2018-10-07T11:50:15.809Z,16.80
2018-10-07T11:52:57.654Z,16.80
2018-10-07T11:55:26.152Z,16.70
2018-10-07T11:57:54.668Z,16.90
2018-10-07T12:00:23.409Z,17.00
2018-10-07T12:02:52.068Z,16.70
2018-10-07T12:05:26.065Z,16.60
2018-10-07T12:10:29.607Z,16.80
2018-10-07T12:13:05.881Z,16.80
2018-10-07T12:20:43.767Z,16.70
2018-10-07T12:23:19.044Z,16.60
2018-10-07T12:25:48.410Z,16.40
2018-10-07T12:28:16.755Z,16.40
2018-10-07T12:30:45.285Z,16.00
2018-10-07T12:33:14.016Z,15.50
2018-10-07T12:35:42.688Z,15.50
2018-10-07T12:38:11.260Z,16.10
2018-10-07T12:40:39.761Z,16.30
2018-10-07T12:43:08.749Z,16.70
2018-10-07T12:45:42.833Z,16.60
2018-10-07T12:48:11.929Z,16.50
2018-10-07T12:50:40.770Z,16.30
2018-10-07T12:53:09.597Z,16.20
2018-10-07T12:55:38.217Z,16.10
2018-10-07T12:58:06.780Z,16.30
2018-10-07T13:00:36.601Z,16.30
2018-10-07T13:03:04.965Z,16.20
2018-10-07T13:05:33.544Z,16.30
2018-10-07T13:08:02.101Z,16.30
2018-10-07T13:10:30.759Z,16.40
2018-10-07T13:12:59.285Z,16.50
2018-10-07T13:15:27.936Z,16.70
2018-10-07T13:17:56.663Z,17.00
2018-10-07T13:20:25.348Z,17.10
2018-10-07T13:22:54.889Z,17.20
2018-10-07T13:25:23.515Z,17.00
2018-10-07T13:27:52.740Z,17.10
2018-10-07T13:30:21.878Z,17.40
2018-10-07T13:32:50.522Z,17.50
2018-10-07T13:35:19.050Z,17.80
2018-10-07T13:37:47.953Z,18.00
2018-10-07T13:40:16.477Z,18.10
2018-10-07T13:42:45.125Z,18.10
2018-10-07T13:45:13.642Z,18.30
2018-10-07T13:47:42.411Z,18.50
2018-10-07T13:50:11.082Z,18.70
2018-10-07T13:52:39.645Z,18.40
2018-10-07T13:55:08.381Z,18.20
2018-10-07T13:57:49.608Z,18.00
2018-10-07T14:00:17.934Z,18.00
2018-10-07T14:02:46.503Z,18.10
2018-10-07T14:05:15.025Z,17.90
2018-10-07T14:07:43.724Z,17.70
2018-10-07T14:10:13.262Z,17.60
2018-10-07T14:12:41.908Z,17.60
2018-10-07T14:15:11.669Z,17.80
2018-10-07T14:17:40.342Z,17.80
2018-10-07T14:20:11.465Z,17.60
2018-10-07T14:22:39.760Z,17.60
2018-10-07T14:25:08.312Z,17.10
2018-10-07T14:30:31.444Z,16.90
2018-10-07T14:33:01.100Z,17.00
2018-10-07T14:35:30.028Z,17.00
2018-10-07T14:37:58.340Z,16.70
2018-10-07T14:40:27.068Z,16.60
2018-10-07T14:42:55.688Z,16.40
2018-10-07T14:45:25.433Z,16.60
2018-10-07T14:47:54.133Z,16.80
2018-10-07T14:50:27.142Z,16.80
2018-10-07T14:52:55.398Z,16.70
2018-10-07T14:55:25.062Z,16.80
2018-10-07T14:57:53.796Z,16.80
2018-10-07T15:00:23.469Z,16.60
2018-10-07T15:02:52.659Z,16.60
2018-10-07T15:05:21.182Z,16.70
2018-10-07T15:07:49.808Z,16.60
2018-10-07T15:10:18.355Z,16.50
2018-10-07T15:12:46.930Z,16.60
2018-10-07T15:15:18.380Z,16.70
2018-10-07T15:17:46.966Z,16.60
2018-10-07T15:20:16.604Z,16.70
2018-10-07T15:22:45.274Z,16.90
2018-10-07T15:25:13.980Z,16.60
2018-10-07T15:27:42.644Z,16.40
2018-10-07T15:30:11.428Z,16.50
2018-10-07T15:32:40.229Z,16.50
2018-10-07T15:35:08.679Z,16.50
2018-10-07T15:37:37.505Z,16.40
2018-10-07T15:40:06.374Z,16.40
2018-10-07T15:42:34.913Z,16.30
2018-10-07T15:45:03.732Z,16.20
2018-10-07T15:47:32.673Z,16.20
2018-10-07T15:50:01.383Z,15.90
2018-10-07T15:52:30.046Z,15.90
2018-10-07T15:54:58.617Z,15.70
2018-10-07T15:57:27.244Z,15.50
2018-10-07T15:59:55.852Z,15.50
2018-10-07T16:02:24.690Z,15.50
2018-10-07T16:04:53.280Z,15.50
2018-10-07T16:07:22.056Z,15.50
2018-10-07T16:09:50.571Z,15.50
2018-10-07T16:12:21.587Z,15.50
2018-10-07T16:14:50.069Z,15.40
2018-10-07T16:17:18.690Z,15.20
2018-10-07T16:19:47.341Z,15.10
2018-10-07T16:22:15.861Z,15.00
2018-10-07T16:24:44.501Z,14.90
2018-10-07T16:27:13.028Z,14.70
2018-10-07T16:29:41.630Z,14.60
2018-10-07T16:32:10.588Z,14.50
2018-10-07T16:34:40.576Z,14.40
2018-10-07T16:37:09.120Z,14.30
2018-10-07T16:39:44.107Z,14.10
2018-10-07T16:42:13.269Z,14.10
2018-10-07T16:44:44.175Z,14.00
2018-10-07T16:47:15.588Z,14.00
2018-10-07T16:52:30.062Z,13.70
2018-10-07T16:54:58.493Z,13.70
2018-10-07T16:57:27.546Z,13.60
2018-10-07T16:59:56.741Z,13.40
2018-10-07T17:02:25.673Z,13.30
2018-10-07T17:04:54.826Z,13.30
2018-10-07T17:07:23.599Z,13.20
2018-10-07T17:09:52.521Z,13.10
2018-10-07T17:12:21.156Z,13.00
2018-10-07T17:14:49.841Z,12.90
2018-10-07T17:17:18.380Z,12.80
2018-10-07T17:19:46.913Z,12.70
2018-10-07T17:22:16.615Z,12.60
2018-10-07T17:24:45.429Z,12.50
2018-10-07T17:27:14.067Z,12.40
2018-10-07T17:29:43.792Z,12.30
2018-10-07T17:32:12.338Z,12.20
2018-10-07T17:34:41.054Z,12.10
2018-10-07T17:37:09.791Z,12.00
2018-10-07T17:39:38.405Z,12.00
2018-10-07T17:42:10.404Z,11.90
2018-10-07T17:44:38.923Z,11.80
2018-10-07T17:47:07.674Z,11.80
2018-10-07T17:49:36.433Z,11.70
2018-10-07T17:52:06.157Z,11.60
2018-10-07T17:54:34.692Z,11.50
2018-10-07T17:57:03.206Z,11.50
2018-10-07T18:02:25.487Z,11.40
2018-10-07T18:04:54.773Z,11.30
2018-10-07T18:07:30.041Z,11.30
2018-10-07T18:09:59.056Z,11.20
2018-10-07T18:15:16.201Z,11.10
2018-10-07T18:17:45.602Z,11.10
2018-10-07T18:20:13.978Z,11.00
2018-10-07T18:22:42.526Z,11.00
2018-10-07T18:25:11.067Z,10.90
2018-10-07T18:27:40.398Z,10.90
2018-10-07T18:30:09.459Z,10.80
2018-10-07T18:32:38.299Z,10.80
2018-10-07T18:35:06.741Z,10.80
2018-10-07T18:37:36.898Z,10.80
2018-10-07T18:40:05.690Z,10.70
2018-10-07T18:42:34.201Z,10.60
2018-10-07T18:45:02.572Z,10.60
2018-10-07T18:47:31.312Z,10.60
2018-10-07T18:50:00.211Z,10.50
2018-10-07T18:52:31.932Z,10.50
2018-10-07T18:55:00.602Z,10.40
2018-10-07T18:57:28.937Z,10.40
2018-10-07T18:59:57.733Z,10.30
2018-10-07T19:02:26.424Z,10.30
2018-10-07T19:04:55.258Z,10.20
2018-10-07T19:07:23.648Z,10.20
2018-10-07T19:09:52.223Z,10.10
2018-10-07T19:12:21.011Z,10.10
2018-10-07T19:14:49.593Z,10.10
2018-10-07T19:17:18.097Z,10.00
2018-10-07T19:19:47.773Z,10.00
2018-10-07T19:22:16.227Z,9.90
2018-10-07T19:24:44.879Z,9.90
2018-10-07T19:27:13.225Z,9.90
2018-10-07T19:29:42.273Z,9.90
2018-10-07T19:32:10.733Z,9.80
2018-10-07T19:34:40.205Z,9.80
2018-10-07T19:37:08.941Z,9.80
2018-10-07T19:39:37.728Z,9.80
2018-10-07T19:42:06.295Z,9.70
2018-10-07T19:44:34.938Z,9.70
2018-10-07T19:47:06.615Z,9.70
2018-10-07T19:49:35.149Z,9.70
2018-10-07T19:52:04.961Z,9.60
2018-10-07T19:54:33.284Z,9.60
2018-10-07T19:57:02.045Z,9.50
2018-10-07T19:59:30.959Z,9.60
2018-10-07T20:01:59.426Z,9.50
2018-10-07T20:04:27.977Z,9.50
2018-10-07T20:06:59.368Z,9.50
2018-10-07T20:09:34.481Z,9.40
2018-10-07T20:12:04.202Z,9.40
2018-10-07T20:14:38.181Z,9.40
2018-10-07T20:17:18.105Z,9.30
2018-10-07T20:19:48.507Z,9.30
2018-10-07T20:22:18.131Z,9.20
2018-10-07T20:24:46.353Z,9.20
2018-10-07T20:27:18.221Z,9.10
2018-10-07T20:29:46.932Z,9.10
2018-10-07T20:32:18.566Z,9.10
2018-10-07T20:34:47.108Z,9.00
2018-10-07T20:37:15.827Z,9.00
2018-10-07T20:39:44.314Z,9.00
2018-10-07T20:43:38.386Z,8.90
2018-10-07T20:46:06.716Z,8.90
2018-10-07T20:48:36.826Z,8.90
2018-10-07T20:51:05.349Z,8.80
2018-10-07T20:53:34.882Z,8.80
2018-10-07T20:56:04.661Z,8.80
2018-10-07T20:58:33.004Z,8.70
2018-10-07T21:01:01.566Z,8.70
2018-10-07T21:03:33.355Z,8.70
2018-10-07T21:06:05.169Z,8.70
2018-10-07T21:08:33.546Z,8.60
2018-10-07T21:11:02.293Z,8.60
2018-10-07T21:13:36.874Z,8.60
2018-10-07T21:16:05.600Z,8.60
2018-10-07T21:18:34.674Z,8.60
2018-10-07T21:21:02.896Z,8.60
2018-10-07T21:23:31.954Z,8.60
2018-10-07T21:26:00.552Z,8.50
2018-10-07T21:28:32.596Z,8.50
2018-10-07T21:31:01.781Z,8.50
2018-10-07T21:33:30.201Z,8.50
2018-10-07T21:35:58.754Z,8.40
2018-10-07T21:38:28.484Z,8.40
2018-10-07T21:40:57.476Z,8.40
2018-10-07T21:43:28.912Z,8.40
2018-10-07T21:45:57.567Z,8.40
2018-10-07T21:48:26.281Z,8.30
2018-10-07T21:50:54.979Z,8.30
2018-10-07T21:53:23.601Z,8.30
2018-10-07T21:55:52.451Z,8.30
2018-10-07T21:58:21.546Z,8.20
2018-10-07T22:00:49.773Z,8.30
2018-10-07T22:03:18.469Z,8.20
2018-10-07T22:05:47.011Z,8.20
2018-10-07T22:08:15.620Z,8.20
2018-10-07T22:10:44.138Z,8.20
2018-10-07T22:13:12.953Z,8.20
2018-10-07T22:15:41.524Z,8.20
2018-10-07T22:18:11.187Z,8.20
2018-10-07T22:20:40.681Z,8.20
2018-10-07T22:23:09.201Z,8.10
2018-10-07T22:25:37.831Z,8.20
2018-10-07T22:28:06.932Z,8.20
2018-10-07T22:30:36.209Z,8.20
2018-10-07T22:33:04.837Z,8.20
2018-10-07T22:35:33.569Z,8.10
2018-10-07T22:38:02.345Z,8.10
2018-10-07T22:40:32.005Z,8.00
2018-10-07T22:43:00.936Z,8.00
2018-10-07T22:45:29.272Z,8.00
2018-10-07T22:47:57.805Z,8.00
2018-10-07T22:50:26.311Z,7.90
2018-10-07T22:52:55.153Z,7.90
2018-10-07T22:55:24.057Z,7.90
2018-10-07T22:57:52.573Z,7.80
2018-10-07T23:00:21.135Z,7.80
2018-10-07T23:02:49.650Z,7.80
2018-10-07T23:05:19.550Z,7.80
2018-10-07T23:07:47.753Z,7.70
2018-10-07T23:10:16.268Z,7.70
2018-10-07T23:12:45.097Z,7.70
2018-10-07T23:15:13.792Z,7.70
2018-10-07T23:17:42.597Z,7.70
2018-10-07T23:20:10.971Z,7.60
2018-10-07T23:22:39.414Z,7.60
2018-10-07T23:25:08.025Z,7.60
2018-10-07T23:27:36.745Z,7.60
2018-10-07T23:30:05.547Z,7.60
2018-10-07T23:32:33.973Z,7.60
2018-10-07T23:35:02.853Z,7.60
2018-10-07T23:37:31.381Z,7.60
2018-10-07T23:39:59.841Z,7.60
2018-10-07T23:42:28.560Z,7.60
2018-10-07T23:44:57.266Z,7.50
2018-10-07T23:47:25.969Z,7.50
2018-10-07T23:49:54.918Z,7.50
2018-10-07T23:52:23.357Z,7.50
2018-10-07T23:54:51.882Z,7.50
2018-10-07T23:57:20.418Z,7.50
2018-10-07T23:59:49.358Z,7.40
